Flight Track Log - Related Links

Times and Time Zones

All times are in EDT time to prevent confusion due to time zone crossing. See the ASQ6041 flight status page for this flight to view local times or setup timezone preferences in your user account.

Time Position Orientation Groundspeed Altitude Reporting Facility
EDT Latitude Longitude Course Direction KTS MPH feet Rate Location/Type
Mon 01:45:37 PM 40.7806 -96.7986 221° Southwest 199 229 4,200  Level Minneapolis Center
Mon 01:46:10 PM 40.7892 -96.8472 283° West 196 226 5,300 1,958 Climbing Minneapolis Center
Mon 01:47:12 PM 40.7789 -96.9317 261° West 224 258 7,300 2,016 Climbing Minneapolis Center
Mon 01:48:00 PM 40.8063 -97.2464 257° West  Level Estimated
Mon 01:48:15 PM 40.7692 -97.0281 262° West 254 292 9,500  Level Minneapolis Center
Mon 01:49:00 PM 40.7889 -97.3669 259° West  Level FlightAware Approximate
Mon 01:49:17 PM 40.7586 -97.1325 262° West 281 323 10,700  Level Minneapolis Center
Mon 01:50:00 PM 40.7760 -97.5034 261° West  Level Estimated
Mon 01:50:19 PM 40.7442 -97.2531 261° West 324 373 11,700  Level Minneapolis Center
Mon 01:51:21 PM 40.7281 -97.3925 261° West 346 398 13,300 1,500 Climbing Minneapolis Center
Mon 01:52:23 PM 40.7128 -97.5233 261° West 356 410 14,800 1,452 Climbing Minneapolis Center
Mon 01:53:25 PM 40.6972 -97.6544 261° West 360 414 16,300 1,355 Climbing Minneapolis Center
Mon 01:54:27 PM 40.6828 -97.7878 262° West 365 420 17,600 1,403 Climbing Minneapolis Center
Mon 01:55:29 PM 40.6631 -97.9475 261° West 367 422 19,200 1,403 Climbing Minneapolis Center
Mon 01:56:31 PM 40.6472 -98.0819 261° West 369 425 20,500 1,306 Climbing Minneapolis Center
Mon 01:57:33 PM 40.6303 -98.2150 261° West 368 423 21,900 1,355 Climbing Minneapolis Center
Mon 01:58:35 PM 40.6147 -98.3461 261° West 364 419 23,300 1,392 Climbing Minneapolis Center
Mon 01:59:38 PM 40.6072 -98.4753 266° West 358 412 24,800 1,296 Climbing Minneapolis Center
Mon 02:00:40 PM 40.6203 -98.6064 278° West 360 414 26,000 1,113 Climbing Minneapolis Center
Mon 02:01:42 PM 40.6314 -98.7394 276° West 363 418 27,100 1,258 Climbing Minneapolis Center
Mon 02:02:44 PM 40.6458 -98.9017 277° West 368 423 28,600 1,403 Climbing Minneapolis Center
Mon 02:03:46 PM 40.6592 -99.0375 277° West 371 427 30,000 1,403 Climbing Minneapolis Center
Mon 02:04:48 PM 40.6697 -99.1719 276° West 369 425 31,500 1,398 Climbing Minneapolis Center
Mon 02:05:29 PM 40.6764 -99.2497 276° West 363 418 32,400 1,223 Climbing Denver Center
Mon 02:06:31 PM 40.6872 -99.3794 276° West 357 411 33,600 774 Climbing Denver Center
Mon 02:07:33 PM 40.6997 -99.5414 276° West 369 425 34,000 194 Climbing Denver Center
Mon 02:08:35 PM 40.7117 -99.6892 276° West 400 460 34,000  Level Denver Center
Mon 02:09:37 PM 40.7247 -99.8458 276° West 424 488 34,000  Level Denver Center
Mon 02:10:39 PM 40.7389 -100.0161 276° West 431 496 34,000  Level Denver Center
Mon 02:11:41 PM 40.7500 -100.1661 276° West 430 495 34,000  Level Denver Center
Mon 02:12:43 PM 40.7619 -100.3167 276° West 431 496 34,000  Level Denver Center
Mon 02:13:45 PM 40.7744 -100.4922 275° West 431 496 34,000  Level Denver Center
Mon 02:14:47 PM 40.7836 -100.6442 275° West 430 495 34,000  Level Denver Center
Mon 02:15:49 PM 40.7581 -100.8264 260° West 435 501 34,000  Level Denver Center
Mon 02:17:04 PM 40.7297 -100.9981 258° West 426 490 34,000  Level Denver Center
Mon 02:18:06 PM 40.7011 -101.1664 257° West 423 487 34,000  Level Denver Center
Mon 02:19:08 PM 40.6764 -101.3114 257° West 424 488 34,000  Level Denver Center
Mon 02:20:10 PM 40.6458 -101.4803 257° West 424 488 34,000  Level Denver Center
Mon 02:21:12 PM 40.6206 -101.6258 257° West 426 490 34,000  Level Denver Center
Mon 02:22:14 PM 40.5897 -101.7956 257° West 428 493 34,000  Level Denver Center
Mon 02:23:16 PM 40.5622 -101.9425 256° West 432 497 34,000  Level Denver Center
Mon 02:24:18 PM 40.5303 -102.1142 256° West 434 499 34,000  Level Denver Center
Mon 02:25:20 PM 40.5039 -102.2619 257° West 436 502 34,000  Level Denver Center
Mon 02:26:22 PM 40.4764 -102.4089 256° West 434 499 34,000  Level Denver Center
Mon 02:27:24 PM 40.4450 -102.5814 257° West 435 501 34,000  Level Denver Center
Mon 02:28:26 PM 40.4158 -102.7303 256° West 432 497 34,000 -336 Level Denver Center
Mon 02:29:29 PM 40.3875 -102.8819 256° West 431 496 33,300 -1,536 Descending Denver Center
Mon 02:30:31 PM 40.3586 -103.0378 256° West 440 506 30,800 -2,468 Descending Denver Center
Mon 02:31:33 PM 40.3247 -103.2150 256° West 420 483 28,200 -2,371 Descending Denver Center
Mon 02:32:35 PM 40.2972 -103.3569 256° West 406 467 25,900 -2,129 Descending Denver Center
Mon 02:33:37 PM 40.2708 -103.4953 256° West 394 453 23,800 -2,097 Descending Denver Center
Mon 02:35:41 PM 40.2192 -103.7597 256° West 350 403 19,400 -1,968 Descending Denver Center
Mon 02:36:43 PM 40.2017 -103.8836 260° West 316 364 17,700 -1,597 Descending Denver Center
Mon 02:37:45 PM 40.2150 -104.0097 278° West 351 404 16,100 -1,597 Descending Denver Center
Mon 02:38:47 PM 40.2278 -104.1456 277° West 351 404 14,400 -1,548 Descending Denver Center
Mon 02:39:49 PM 40.2347 -104.2678 274° West 341 392 12,900 -1,452 Descending Denver Center
Mon 02:40:51 PM 40.2167 -104.3886 259° West 339 390 11,400 -919 Descending Denver Center
Mon 02:41:53 PM 40.2033 -104.5014 261° West 293 337 11,000 -823 Descending Denver Center
Mon 02:42:55 PM 40.1933 -104.5911 262° West 257 296 9,700 -968 Descending Denver Center
Mon 02:43:57 PM 40.1569 -104.6703 239° Southwest 247 284 9,000 -387 Descending Denver Center
Mon 02:44:59 PM 40.0933 -104.6933 195° South 238 274 8,900 -629 Descending Denver Center
Mon 02:46:01 PM 40.0253 -104.6947 181° South 225 259 7,700 -1,065 Descending Denver Center
Mon 02:47:03 PM 39.9681 -104.6953 180° South 210 242 6,700 -823 Descending Denver Center
Mon 02:48:05 PM 39.9256 -104.6956 180° South 154 177 6,000 -629 Descending Denver Center
Mon 02:49:07 PM 39.8822 -104.6961 181° South 147 169 5,400 -581 Descending Denver Center

Login

Don't have an account? Register now (free) for customized features, flight alerts, and more!